WEATHER DATA

YESTERDAY
Time Temp. Dewp. Hum. Wind dir Wind speed Wind gust Bar. 1h Prec. 24h Prec.
00:00 20.7 13.7 64 206 0.3 0.8 1025 0.0000 0.0000
00:10 20.6 13.6 64 143 0.3 0.6 1024.9 0.0000 0.0000
00:19 20.4 13.4 64 143 0.3 0.6 1025.1 0.0000 0.0000
00:30 20.2 13.2 64 195 0.3 0.6 1025.1 0.0000 0.0000
00:41 20 13.2 65 195 0.3 0.8 1025.1 0.0000 0.0000
00:51 19.9 12.9 64 221 0.3 1.1 1025.1 0.0000 0.0000
01:01 19.7 12.7 64 225 0.6 1.7 1025 0.0000 0.0000
01:11 19.5 12.5 64 239 0.6 1.4 1025.1 0.0000 0.0000
01:22 19.3 12.6 65 221 0.3 1.1 1025.1 0.0000 0.0000
01:32 19.2 12.5 65 230 0.6 1.4 1025.1 0.0000 0.0000
01:42 19.1 12.4 65 214 0.3 0.8 1025.1 0.0000 0.0000
01:51 19 12.3 65 225 0.3 1.1 1025 0.0000 0.0000
02:02 18.9 12.2 65 225 0.6 1.1 1025 0.0000 0.0000
02:12 18.8 11.9 64 219 0.6 1.7 1025 0.0000 0.0000
02:22 18.6 11.7 64 225 0.6 1.4 1025.1 0.0000 0.0000
02:32 18.5 11.6 64 231 0.8 1.9 1025.2 0.0000 0.0000
02:42 18.3 11.4 64 227 0.8 1.9 1025.1 0.0000 0.0000
02:52 18.1 11.2 64 229 0.6 1.4 1025.2 0.0000 0.0000
03:02 17.9 11.2 65 231 0.6 1.7 1025.1 0.0000 0.0000
03:13 17.8 11.1 65 229 0.6 1.4 1025.2 0.0000 0.0000
03:23 17.6 11 65 245 0.6 1.4 1025.2 0.0000 0.0000
03:32 17.5 10.9 65 228 0.3 1.1 1025 0.0000 0.0000
03:43 17.5 10.9 65 225 0.6 1.4 1025.1 0.0000 0.0000
03:53 17.5 10.9 65 225 0.6 1.4 1025.1 0.0000 0.0000
04:03 17.4 10.8 65 219 0.3 0.8 1025 0.0000 0.0000
04:13 17.3 10.7 65 234 0.6 1.9 1024.9 0.0000 0.0000
04:23 17.2 10.6 65 231 0.8 1.9 1025 0.0000 0.0000
04:33 17.1 10.5 65 225 0.6 1.7 1025 0.0000 0.0000
04:43 16.9 10.3 65 233 0.6 1.9 1025 0.0000 0.0000
04:53 16.8 10.2 65 235 0.6 1.7 1024.9 0.0000 0.0000
05:04 16.7 10.1 65 234 0.6 1.9 1024.8 0.0000 0.0000
05:13 16.7 10.1 65 237 0.6 1.9 1024.8 0.0000 0.0000
05:23 16.6 10 65 235 0.6 1.7 1024.8 0.0000 0.0000
05:34 16.5 9.9 65 234 0.6 1.4 1024.8 0.0000 0.0000
05:45 16.5 9.9 65 225 0.3 1.1 1024.7 0.0000 0.0000
05:55 16.5 9.9 65 198 0.3 0.8 1024.7 0.0000 0.0000
06:05 16.4 9.8 65 220 0.3 0.8 1024.8 0.0000 0.0000
06:15 16.4 9.8 65 225 0.3 1.1 1025 0.0000 0.0000
06:26 16.2 9.8 66 231 0.6 1.4 1025.2 0.0000 0.0000
06:36 16.1 9.8 66 228 0.3 1.1 1025.1 0.0000 0.0000
06:45 16.1 9.8 66 252 0.6 1.1 1025.2 0.0000 0.0000
06:56 16.2 9.8 66 248 0.6 1.4 1025.3 0.0000 0.0000
07:06 16.3 9.9 66 243 0.6 1.4 1025.4 0.0000 0.0000
07:16 16.7 10.1 65 228 0.6 1.7 1025.5 0.0000 0.0000
07:26 17.2 10.6 65 225 0.3 0.8 1025.5 0.0000 0.0000
07:37 17.6 11 65 225 0.3 0.8 1025.5 0.0000 0.0000
07:46 18.1 11.2 64 231 0.3 1.1 1025.4 0.0000 0.0000
07:56 18.5 11.1 62 247 0.6 1.4 1025.4 0.0000 0.0000
08:07 18.9 11.2 61 253 0.6 1.4 1025.6 0.0000 0.0000
08:17 19.3 11.4 60 232 0.3 1.4 1025.6 0.0000 0.0000
08:27 19.7 11.7 60 270 0.3 1.1 1025.5 0.0000 0.0000
08:36 20.2 11.9 59 237 0.3 1.1 1025.6 0.0000 0.0000
08:47 20.6 11.8 57 250 0.6 1.4 1025.5 0.0000 0.0000
08:57 21.1 12 56 253 0.6 1.4 1025.4 0.0000 0.0000
09:07 21.6 12.2 55 246 0.6 1.4 1025.3 0.0000 0.0000
09:17 22.1 12.6 55 254 0.6 1.1 1025.5 0.0000 0.0000
09:28 22.6 12.8 54 240 0.3 1.1 1025.2 0.0000 0.0000
09:37 23 12.9 53 18 0.3 0.8 1025.3 0.0000 0.0000
09:47 23.3 13.2 53 51 0.3 0.8 1025.2 0.0000 0.0000
09:58 23.5 13.4 53 39 0.3 1.1 1025.2 0.0000 0.0000
10:08 23.7 13.6 53 56 0.6 1.7 1025.2 0.0000 0.0000
10:18 23.8 13.4 52 90 0.3 1.1 1025.2 0.0000 0.0000
10:28 24 13.5 52 45 0.6 1.4 1025.1 0.0000 0.0000
10:38 24.2 13.4 51 40 0.8 1.4 1025.1 0.0000 0.0000
10:48 24.2 13.4 51 57 0.6 2.2 1025 0.0000 0.0000
10:58 24.4 13 49 45 0.8 2.2 1024.9 0.0000 0.0000
11:09 24.3 13.2 50 29 0.8 2.2 1024.9 0.0000 0.0000
11:19 24.4 13.3 50 41 0.6 1.4 1024.8 0.0000 0.0000
11:29 24.6 13.8 51 21 0.3 1.1 1024.8 0.0000 0.0000
11:39 24.9 13.5 49 48 0.6 1.9 1024.5 0.0000 0.0000
11:50 25.1 14 50 30 0.6 1.4 1024.4 0.0000 0.0000
11:51 25.2 14 50 39 0.6 1.4 1024.3 0.0000 0.0000
12:01 25.5 14 49 225 0.3 0.8 1024.1 0.0000 0.0000
12:12 25.8 14.3 49 48 0.3 1.4 1024 0.0000 0.0000
12:21 26 14.5 49 90 0.3 1.4 1023.9 0.0000 0.0000
12:31 26.2 14.7 49 225 0.3 1.1 1023.8 0.0000 0.0000
12:42 26.4 14.5 48 45 0.6 1.7 1023.7 0.0000 0.0000
12:53 26.4 14.8 49 270 0.6 1.7 1023.6 0.0000 0.0000
13:03 26.8 14.9 48 245 0.6 1.4 1023.5 0.0000 0.0000
13:12 26.9 14.6 47 39 0.6 1.7 1023.3 0.0000 0.0000
13:23 27 14.4 46 39 0.3 1.7 1023.2 0.0000 0.0000
13:33 27.1 13.8 44 29 0.6 1.7 1023.2 0.0000 0.0000
13:43 27.4 13.4 42 247 0.6 2.2 1023 0.0000 0.0000
13:53 27.7 13.3 41 241 0.6 1.7 1023 0.0000 0.0000
14:03 28 13.2 40 54 0.6 1.9 1022.9 0.0000 0.0000
14:13 28.4 13.1 39 0.6 2.2 1022.7 0.0000 0.0000
14:23 28.6 13.3 39 229 0.6 1.7 1022.5 0.0000 0.0000
14:33 28.9 13.2 38 225 0.3 1.9 1022.4 0.0000 0.0000
14:43 29.2 13 37 45 0.3 1.4 1022.2 0.0000 0.0000
14:53 29.3 13.1 37 225 0.3 0.8 1022 0.0000 0.0000
15:03 29.5 13.7 38 225 0.6 1.7 1021.9 0.0000 0.0000
15:13 29.6 13.4 37 230 0.6 1.4 1021.6 0.0000 0.0000
15:23 29.8 13.6 37 239 0.3 1.4 1021.5 0.0000 0.0000
15:33 29.9 13.2 36 37 0.6 1.9 1021.5 0.0000 0.0000
15:44 30 13.3 36 225 0.6 1.4 1021.3 0.0000 0.0000
15:55 30.1 13.4 36 270 0.3 1.4 1021.2 0.0000 0.0000
16:05 30.2 13.1 35 225 0.8 3.3 1021 0.0000 0.0000
16:15 30.3 13.1 35 225 0.8 2.5 1021 0.0000 0.0000
16:25 30.3 13.1 35 237 1.1 2.5 1020.9 0.0000 0.0000
16:36 30.3 13.1 35 229 0.6 2.2 1020.7 0.0000 0.0000
16:48 30.3 13.6 36 239 0.8 4.7 1020.5 0.0000 0.0000
16:58 30.4 13.2 35 225 0.6 1.9 1020.3 0.0000 0.0000
17:08 30.4 13.2 35 239 0.6 2.8 1020.2 0.0000 0.0000
17:28 30.3 13.6 36 239 0.6 1.4 1020 0.0000 0.0000
17:35 30.2 13.1 35 235 0.8 5 1019.9 0.0000 0.0000
17:45 30.1 13 35 241 1.1 3.1 1019.8 0.0000 0.0000
17:55 30 12.9 35 227 0.6 2.2 1019.8 0.0000 0.0000
18:05 30 13.3 36 228 1.1 3.1 1019.8 0.0000 0.0000
18:15 29.8 13.1 36 225 0.6 1.9 1019.8 0.0000 0.0000
18:25 29.7 13 36 227 0.6 1.9 1019.6 0.0000 0.0000
18:36 29.6 13 36 228 0.6 1.9 1019.5 0.0000 0.0000
18:46 29.5 12.9 36 228 0.6 1.7 1019.3 0.0000 0.0000
18:56 29.4 12.8 36 227 0.8 3.3 1019.4 0.0000 0.0000
19:06 29.3 13.1 37 225 0.6 1.7 1019.3 0.0000 0.0000
19:16 29.1 12.5 36 225 0.8 2.2 1019.3 0.0000 0.0000
19:27 29 12.8 37 217 0.6 1.7 1019.3 0.0000 0.0000
19:37 28.9 12.8 37 221 0.3 1.1 1019.3 0.0000 0.0000
19:47 28.7 12.2 36 230 0.6 1.9 1019.5 0.0000 0.0000
19:57 28.5 11.6 35 221 0.3 1.7 1019.5 0.0000 0.0000
20:08 28.3 11.4 35 213 0.3 0.8 1019.5 0.0000 0.0000
20:17 28.1 11.2 35 230 0.3 1.1 1019.5 0.0000 0.0000
20:27 27.9 11 35 219 0.3 0.8 1019.7 0.0000 0.0000
20:38 27.6 10.8 35 220 0.3 1.4 1019.6 0.0000 0.0000
20:48 27.3 10.5 35 247 0.6 1.1 1019.8 0.0000 0.0000
20:57 27 10.7 36 220 0.3 0.8 1019.9 0.0000 0.0000
21:07 26.7 10.8 37 218 0.3 0.8 1020 0.0000 0.0000
21:18 26.4 11 38 229 0.3 0.8 1019.8 0.0000 0.0000
21:28 26.1 10.7 38 214 0.3 0.8 1019.8 0.0000 0.0000
21:37 25.9 10.5 38 186 0.3 0.8 1020 0.0000 0.0000
21:48 25.6 10.6 39 213 0.3 1.1 1019.9 0.0000 0.0000
21:58 25.3 10.7 40 225 0.3 0.8 1020.1 0.0000 0.0000
22:08 25.1 10.6 40 209 0.3 0.6 1020.1 0.0000 0.0000
22:17 24.8 10.7 41 220 0.3 0.8 1020.1 0.0000 0.0000
22:28 24.5 10.4 41 203 0.3 1.1 1020.1 0.0000 0.0000
22:38 24.1 10.4 42 205 0.3 0.8 1020.2 0.0000 0.0000
22:48 23.8 10.5 43 210 0.3 0.8 1020.1 0.0000 0.0000
22:58 23.5 10.2 43 144 0.3 0.6 1020.3 0.0000 0.0000
23:08 23.3 10.4 44 195 0.3 0.8 1020.3 0.0000 0.0000
23:18 23.1 10.2 44 233 0.3 0.8 1020.4 0.0000 0.0000
23:28 22.8 10.3 45 225 0.3 1.1 1020.5 0.0000 0.0000
23:38 22.6 10.4 46 221 0.3 1.1 1020.5 0.0000 0.0000
23:48 22.5 10.3 46 220 0.3 1.1 1020.6 0.0000 0.0000
23:58 22.5 10.3 46 235 0.6 1.4 1020.6 0.0000 0.0000

DAY STATISTIC

2018-08-19
TEMPERATURE
AVERAGE
23.5
HIGH
30.4
16:58
LOW
16.1
06:36
PRESSURE
AVERAGE
1023.0
HIGH
1025.6
08:07
LOW
1019.3
18:46
DEWPOINT
AVERAGE
12.1
HIGH
14.9
13:03
LOW
9.8
06:05
HUMIDITY
AVERAGE
50
HIGH
66
06:26
LOW
35
16:05
WIND SPEED
AVERAGE
0.5
HIGH
1.1
16:25
WIND GUST
AVERAGE
1.5
HIGH
5.0
17:35
WIND DIRECTION
PREVAILING
SW
69.9%
N
1.4
NE
14.0
E
1.4
SE
2.1
S
4.2
SW
69.9
W
6.3
NW
0.0
PRECIPITATION
RAIN HOUR
0.0
RAIN DAY
0.0
TEMPERATURE (°C)
LOW
16.1
HIGH
30.4
AVERAGE
23.5
PRESSURE (hpa)
LOW
1019.3
HIGH
1025.6
AVERAGE
1023.0
DEVICE